KIPL/IPL METAR and TAF weather

Enter ICAO airport designator
Station Type Date Time Source
KIPL METAR 2021/01/20 21:53 UTC NOAA

KIPL 202153Z AUTO 33006KT 7SM -RA FEW035 BKN050 OVC075 13/12 A3002 RMK AO2 SLP164 P0012 T01280122


Station Type Date Time Source
KIPL Decoded METAR 2021/01/20 21:53 UTC NOAA

Imperial, Imperial County Airport, CA, United States (KIPL) 32-50-03N 115-34-43W -15M
Jan 20, 2021 - 04:53 PM EST / 2021.01.20 2153 UTC
Wind: from the NNW (330 degrees) at 7 MPH (6 KT):0
Visibility: 7 mile(s):0
Sky conditions: overcast
Weather: light rain
Precipitation last hour: 0.12 inches
Temperature: 55.0 F (12.8 C)
Dew Point: 54.0 F (12.2 C)
Relative Humidity: 96%
Pressure (altimeter): 30.02 in. Hg (1016 hPa)
ob: KIPL 202153Z AUTO 33006KT 7SM -RA FEW035 BKN050 OVC075 13/12 A3002 RMK AO2 SLP164 P0012 T01280122
cycle: 22

Station Type Date Time Source
KIPL TAF 2021/01/20 19:27 UTC NOAA

TAF
AMD KIPL 201924Z 2019/2118 34010KT P6SM -SHRA FEW025 BKN050 OVC080
TEMPO 2019/2021 3SM SHRA BKN025 OVC050
FM210100 33007KT P6SM VCSH SCT030 BKN040 OVC060

Example: see airport list